KAFO/AFO METAR and TAF weather

Enter ICAO airport designator
Station Type Date Time Source
KAFO METAR 2021/09/23 23:15 UTC NOAA

KAFO 232315Z AUTO 36005KT 10SM CLR 19/01 A3022 RMK AO2


Station Type Date Time Source
KAFO Decoded METAR 2021/09/23 23:15 UTC NOAA

Station name not available
Sep 23, 2021 - 07:15 PM EDT / 2021.09.23 2315 UTC
Wind: from the N (360 degrees) at 6 MPH (5 KT):0
Visibility: 10 mile(s):0
Sky conditions: clear
Temperature: 66 F (19 C)
Dew Point: 33 F (1 C)
Relative Humidity: 29%
Pressure (altimeter): 30.22 in. Hg (1023 hPa)
ob: KAFO 232315Z AUTO 36005KT 10SM CLR 19/01 A3022 RMK AO2
cycle: 23

Station Type Date Time Source
KAFO TAF UTC NOAA

Error!

Example: see airport list